Megah Delapan — VRGA4 — position and weather

sailwx.info

Track history (hours):
 
Tides and Currents Weather Stations Pressure Air Temp Water Temp Dewpoint Dewpoint Depression Visibility Wind Speed Wind Dir Waves Ship Positions

Megah Delapan

Last reported at 2014-Sep-16 07:14 UTC. Time now 2014-Sep-19 11:50 UTC.
Position N 01°15' E 104°05'.

Length 120 m; draft 8.8 m.

Type: Cargo ship. MMSI: 477639100.

Date/timePositionNaut miles runAvg speedWind from/ knotsBaromVisibWave heightAir tempDewpointWater temp
2014-Sep-16 07:14N 01°15' E 104°05'710.9
2014-Sep-16 06:33N 01°14' E 103°58'5 4.8
2014-Sep-16 05:33N 01°15' E 103°53'0 0.1
2014-Sep-16 04:32N 01°15' E 103°53'0 0.0
2014-Sep-16 03:32N 01°15' E 103°53'0 0.0
2014-Sep-16 02:32N 01°15' E 103°53'0 0.0
2014-Sep-16 01:32N 01°15' E 103°53'0 0.0
2014-Sep-16 00:32N 01°15' E 103°53'0 0.0
2014-Sep-15 23:32N 01°15' E 103°53'0 0.0
2014-Sep-15 22:32N 01°15' E 103°53'0 0.0
2014-Sep-15 21:32N 01°15' E 103°53'0 0.0
2014-Sep-15 20:32N 01°15' E 103°53'0 0.0
2014-Sep-15 19:32N 01°15' E 103°53'0 0.1
2014-Sep-15 18:32N 01°15' E 103°53'0 0.1
2014-Sep-15 17:29N 01°15' E 103°53'0 0.0
2014-Sep-15 16:32N 01°15' E 103°53'2 1.7
2014-Sep-15 15:33N 01°14' E 103°53'6 5.9
2014-Sep-15 14:32N 01°10' E 103°49'21 9.6
2014-Sep-15 12:21N 01°09' E 103°28'  
2014-Sep-08 09:33N 01°11' E 103°48'8 7.7
2014-Sep-08 08:33N 01°16' E 103°54'0 0.0
2014-Sep-08 07:31N 01°16' E 103°54'0 0.0
2014-Sep-08 06:31N 01°16' E 103°54'0 0.0
2014-Sep-08 05:31N 01°16' E 103°54'0 0.1
2014-Sep-08 04:31N 01°16' E 103°54'0 0.1
2014-Sep-08 03:31N 01°16' E 103°54'0 0.0
2014-Sep-08 02:31N 01°16' E 103°54'0 0.0
2014-Sep-08 01:31N 01°16' E 103°54'0 0.0
2014-Sep-08 00:31N 01°16' E 103°54'0 0.0
2014-Sep-07 23:31N 01°16' E 103°54'0 0.0
2014-Sep-07 22:31N 01°16' E 103°54'0 0.0
2014-Sep-07 21:31N 01°16' E 103°54'0 0.1
2014-Sep-07 20:31N 01°16' E 103°54'0 0.0
2014-Sep-07 19:31N 01°16' E 103°54'0 0.1
2014-Sep-07 18:31N 01°16' E 103°54'0 0.0
2014-Sep-07 17:31N 01°16' E 103°54'0 0.0
2014-Sep-07 16:31N 01°16' E 103°54'0 0.0
2014-Sep-07 15:31N 01°16' E 103°54'0 0.1
2014-Sep-07 14:31N 01°16' E 103°54'0 0.1
2014-Sep-07 13:31N 01°16' E 103°54'3 2.8
2014-Sep-07 12:33N 01°13' E 103°53'7 7.4
2014-Sep-07 11:33N 01°16' E 104°00'  
Track history (hours):
 
Tides and Currents Weather Stations Pressure Air Temp Water Temp Dewpoint Dewpoint Depression Visibility Wind Speed Wind Dir Waves Ship Positions

Megah Delapan

Last reported at 2014-Sep-16 07:14 UTC. Time now 2014-Sep-19 11:50 UTC.
Position N 01°15' E 104°05'.

Length 120 m; draft 8.8 m.

Type: Cargo ship. MMSI: 477639100.

Date/timePositionNaut miles runAvg speedWind from/ knotsBaromVisibWave heightAir tempDewpointWater temp
2014-Sep-16 07:14N 01°15' E 104°05'710.9
2014-Sep-16 06:33N 01°14' E 103°58'5 4.8
2014-Sep-16 05:33N 01°15' E 103°53'0 0.1
2014-Sep-16 04:32N 01°15' E 103°53'0 0.0
2014-Sep-16 03:32N 01°15' E 103°53'0 0.0
2014-Sep-16 02:32N 01°15' E 103°53'0 0.0
2014-Sep-16 01:32N 01°15' E 103°53'0 0.0
2014-Sep-16 00:32N 01°15' E 103°53'0 0.0
2014-Sep-15 23:32N 01°15' E 103°53'0 0.0
2014-Sep-15 22:32N 01°15' E 103°53'0 0.0
2014-Sep-15 21:32N 01°15' E 103°53'0 0.0
2014-Sep-15 20:32N 01°15' E 103°53'0 0.0
2014-Sep-15 19:32N 01°15' E 103°53'0 0.1
2014-Sep-15 18:32N 01°15' E 103°53'0 0.1
2014-Sep-15 17:29N 01°15' E 103°53'0 0.0
2014-Sep-15 16:32N 01°15' E 103°53'2 1.7
2014-Sep-15 15:33N 01°14' E 103°53'6 5.9
2014-Sep-15 14:32N 01°10' E 103°49'21 9.6
2014-Sep-15 12:21N 01°09' E 103°28'  
2014-Sep-08 09:33N 01°11' E 103°48'8 7.7
2014-Sep-08 08:33N 01°16' E 103°54'0 0.0
2014-Sep-08 07:31N 01°16' E 103°54'0 0.0
2014-Sep-08 06:31N 01°16' E 103°54'0 0.0
2014-Sep-08 05:31N 01°16' E 103°54'0 0.1
2014-Sep-08 04:31N 01°16' E 103°54'0 0.1
2014-Sep-08 03:31N 01°16' E 103°54'0 0.0
2014-Sep-08 02:31N 01°16' E 103°54'0 0.0
2014-Sep-08 01:31N 01°16' E 103°54'0 0.0
2014-Sep-08 00:31N 01°16' E 103°54'0 0.0
2014-Sep-07 23:31N 01°16' E 103°54'0 0.0
2014-Sep-07 22:31N 01°16' E 103°54'0 0.0
2014-Sep-07 21:31N 01°16' E 103°54'0 0.1
2014-Sep-07 20:31N 01°16' E 103°54'0 0.0
2014-Sep-07 19:31N 01°16' E 103°54'0 0.1
2014-Sep-07 18:31N 01°16' E 103°54'0 0.0
2014-Sep-07 17:31N 01°16' E 103°54'0 0.0
2014-Sep-07 16:31N 01°16' E 103°54'0 0.0
2014-Sep-07 15:31N 01°16' E 103°54'0 0.1
2014-Sep-07 14:31N 01°16' E 103°54'0 0.1
2014-Sep-07 13:31N 01°16' E 103°54'3 2.8
2014-Sep-07 12:33N 01°13' E 103°53'7 7.4
2014-Sep-07 11:33N 01°16' E 104°00'  

Dump ship's entire track history